Strona główna
METAR-TAF:

METAR-TAF

Lotnisko :

Yeovilton, Anglia

Szerokość geograficzna: 51-00N, Długość geograficzna: 002-38W, wysokość: 23 m

Aktualna obserwacja pogody

Raport powstał 26 minut temu, godzina 05:50 UTC
Wiatr 5 kt od północno-północny wschód
Temperatura 12°C
Wilgotność 71%
Ciśnienie 1022 hPa
Widzialność 10 km lub więcej
Brak chmur poniżej 1500 m i brak chmur cumulonimbus

METAR: EGDY 010550Z 03005KT CAVOK 12/07 Q1022 BLU

czas: 07:16 (06:16 UTC)


TAF: brakujący

Obserwacja i prognoza pogody dla ponad 4000 lotnisk (raport METAR i TAF).

Dostępne stacje oznaczono żółtymi i czerwonymi punktami na mapie.

Najedź kursorem aby zobaczyć nazwę stacji.

Kliknij aby zobaczyć obserwacje i prognozy pogody.

Aby zmienić mapę: kliknij na zielony przycisk z czarnym krzyżykiem, aby powiększyć; na zielony przycisk z myślnikiem, aby pomniejszyć; na zielone strzałki, aby przejść do map sąsiednich.


METAR-TAF: